Time;durP1;ratioP1;P1;durP2;ratioP2;P2;SDS_P1;SDS_P2;PMS_P1;PMS_P2;Temp;Humidity;BMP_temperature;BMP_pressure;BME280_temperature;BME280_humidity;BME280_pressure;Samples;Min_cycle;Max_cycle;Signal;HPM_P1;HPM_P2
2022/06/24 00:02:09;;;;;;;3.42;1.92;;;;;;;17.37;73.57;99015.59;1770677;81;21096;-74
2022/06/24 00:04:36;;;;;;;2.37;1.98;;;;;;;17.36;73.74;99012.60;1770263;80;20947;-73
2022/06/24 00:07:16;;;;;;;2.33;2.05;;;;;;;17.34;73.76;99011.05;1750886;81;20947;-73
2022/06/24 00:09:43;;;;;;;3.70;1.95;;;;;;;17.33;74.01;99016.78;1770369;81;21443;-74
2022/06/24 00:12:13;;;;;;;3.92;1.90;;;;;;;17.32;74.27;99019.52;1770356;80;21033;-74
2022/06/24 00:14:41;;;;;;;2.10;1.65;;;;;;;17.30;74.62;99017.01;1769908;80;21281;-75
2022/06/24 00:17:09;;;;;;;4.90;2.42;;;;;;;17.30;74.90;99017.48;1770507;81;20934;-75
2022/06/24 00:19:54;;;;;;;3.77;2.10;;;;;;;17.29;74.93;99015.80;1770325;80;20923;-75
2022/06/24 00:22:20;;;;;;;2.62;1.98;;;;;;;17.28;75.23;99018.07;1753585;81;20978;-74
2022/06/24 00:24:47;;;;;;;5.15;2.02;;;;;;;17.27;75.55;99012.45;1770303;81;21077;-75
2022/06/24 00:27:23;;;;;;;2.60;1.80;;;;;;;17.26;75.59;99012.09;1770276;81;21455;-73
2022/06/24 00:29:54;;;;;;;2.95;1.98;;;;;;;17.25;75.87;99017.83;1770532;80;21010;-74
2022/06/24 00:32:30;;;;;;;2.42;2.10;;;;;;;17.23;76.00;99016.63;1750958;81;20970;-73
2022/06/24 00:35:10;;;;;;;4.05;2.30;;;;;;;17.22;76.03;99018.05;1770437;80;21264;-74
2022/06/24 00:37:39;;;;;;;2.87;2.20;;;;;;;17.19;76.19;99023.53;1770251;81;21014;-74
2022/06/24 00:40:17;;;;;;;3.90;2.55;;;;;;;17.15;76.46;99019.02;1770361;81;21091;-73
2022/06/24 00:42:45;;;;;;;3.20;2.10;;;;;;;17.12;76.71;99024.50;1770258;81;20915;-74
2022/06/24 00:45:36;;;;;;;2.72;1.90;;;;;;;17.10;77.17;99025.09;1770540;80;20963;-74
2022/06/24 00:48:10;;;;;;;1.95;1.80;;;;;;;17.09;77.48;99023.41;1770290;80;20915;-74
2022/06/24 00:50:38;;;;;;;2.77;2.00;;;;;;;17.07;77.56;99024.00;1770242;80;21049;-75
2022/06/24 00:53:05;;;;;;;2.62;2.42;;;;;;;17.04;77.60;99022.07;1751001;81;21837;-74
2022/06/24 00:55:36;;;;;;;3.15;2.25;;;;;;;17.04;77.69;99019.44;1770497;81;20927;-73
2022/06/24 00:58:04;;;;;;;4.08;2.10;;;;;;;17.03;77.77;99021.70;1770581;81;21439;-74
2022/06/24 01:00:33;;;;;;;3.27;2.22;;;;;;;17.05;77.95;99021.12;1770254;81;21022;-74
2022/06/24 01:03:04;;;;;;;4.65;2.10;;;;;;;17.05;78.12;99029.84;1770333;81;20967;-74
2022/06/24 01:05:32;;;;;;;3.47;2.55;;;;;;;17.05;78.18;99023.27;1770369;80;21165;-74
2022/06/24 01:08:08;;;;;;;3.22;2.00;;;;;;;17.05;78.24;99023.27;1770455;80;20974;-75
2022/06/24 01:10:36;;;;;;;4.12;2.47;;;;;;;17.04;78.37;99024.70;1770495;80;20978;-75
2022/06/24 01:13:02;;;;;;;4.00;2.12;;;;;;;17.04;78.38;99026.01;1770496;80;20943;-75
2022/06/24 01:15:31;;;;;;;3.27;2.10;;;;;;;17.04;78.45;99026.84;1770311;80;20867;-75
2022/06/24 01:17:57;;;;;;;3.15;2.70;;;;;;;17.06;78.54;99024.11;1770297;80;21173;-75
2022/06/24 01:20:24;;;;;;;2.40;2.20;;;;;;;17.06;78.51;99013.13;1770565;80;21428;-74
2022/06/24 01:22:51;;;;;;;3.70;2.42;;;;;;;17.07;78.50;99012.65;1770260;81;20970;-74
2022/06/24 01:25:17;;;;;;;2.70;2.50;;;;;;;17.09;78.45;99011.58;1770165;81;21041;-74
2022/06/24 01:27:44;;;;;;;2.83;2.47;;;;;;;17.11;78.32;99007.53;1770533;80;21003;-73
2022/06/24 01:30:11;;;;;;;3.65;2.30;;;;;;;17.11;78.23;99004.42;1770582;81;21158;-74
2022/06/24 01:32:38;;;;;;;5.05;2.40;;;;;;;17.13;78.26;99005.15;1770229;80;21014;-74
2022/06/24 01:35:07;;;;;;;2.72;2.25;;;;;;;17.15;78.35;99008.50;1770290;81;20963;-74
2022/06/24 01:37:33;;;;;;;2.85;2.50;;;;;;;17.15;78.57;99003.72;1770217;80;20970;-74
2022/06/24 01:40:00;;;;;;;5.37;2.22;;;;;;;17.15;78.69;99008.50;1770486;80;21554;-75
2022/06/24 01:42:26;;;;;;;3.42;2.60;;;;;;;17.16;78.72;99005.40;1770319;81;21103;-74
2022/06/24 01:44:53;;;;;;;3.92;2.55;;;;;;;17.15;78.85;99003.25;1770406;81;20966;-74
2022/06/24 01:47:20;;;;;;;4.62;2.50;;;;;;;17.15;79.08;99005.88;1770217;81;21014;-75
2022/06/24 01:49:46;;;;;;;2.60;2.40;;;;;;;17.15;79.30;99007.66;1770337;81;20951;-74
2022/06/24 01:52:14;;;;;;;2.67;2.15;;;;;;;17.16;79.41;99004.09;1770221;81;21461;-74
2022/06/24 01:54:41;;;;;;;3.65;2.50;;;;;;;17.17;79.36;99001.82;1770476;81;21504;-75
2022/06/24 01:57:08;;;;;;;2.67;2.27;;;;;;;17.17;79.45;99006.59;1770255;81;20955;-74
2022/06/24 01:59:35;;;;;;;2.60;2.40;;;;;;;17.18;79.36;99012.22;1770505;81;20982;-74
2022/06/24 02:02:02;;;;;;;4.30;2.27;;;;;;;17.18;79.21;99012.22;1770219;81;20962;-74
2022/06/24 02:04:28;;;;;;;3.25;2.10;;;;;;;17.19;78.95;99016.97;1770322;80;21481;-74
2022/06/24 02:06:56;;;;;;;4.83;2.50;;;;;;;17.19;78.70;99013.86;1770241;80;21193;-73
2022/06/24 02:09:22;;;;;;;9.00;2.42;;;;;;;17.18;78.63;99009.59;1770319;80;21481;-74
2022/06/24 02:14:35;;;;;;;2.65;2.45;;;;;;;17.17;78.40;99022.84;1770308;81;20947;-71
2022/06/24 02:17:01;;;;;;;2.55;2.35;;;;;;;17.16;78.15;99014.12;1770507;80;20971;-72
2022/06/24 02:19:28;;;;;;;4.75;2.40;;;;;;;17.16;78.24;99014.12;1770201;80;21267;-72
2022/06/24 02:21:54;;;;;;;4.53;2.22;;;;;;;17.16;78.42;99009.34;1770533;80;21089;-72
2022/06/24 02:24:21;;;;;;;2.33;2.12;;;;;;;17.15;78.52;99005.88;1770474;81;21493;-71
2022/06/24 02:26:47;;;;;;;4.65;2.20;;;;;;;17.16;78.50;99010.66;1770321;80;21014;-71
2022/06/24 02:29:14;;;;;;;3.98;2.40;;;;;;;17.17;78.34;99017.59;1770237;81;20959;-75
2022/06/24 02:31:41;;;;;;;4.78;2.60;;;;;;;17.16;78.29;99021.17;1770238;81;21146;-72
2022/06/24 02:34:07;;;;;;;2.80;2.40;;;;;;;17.16;78.26;99018.06;1770128;80;21005;-72
2022/06/24 02:36:34;;;;;;;2.62;2.42;;;;;;;17.14;78.30;99021.28;1770259;80;21007;-72
2022/06/24 02:39:00;;;;;;;3.30;2.60;;;;;;;17.13;78.52;99023.55;1770465;81;21482;-72
2022/06/24 02:41:28;;;;;;;2.92;2.30;;;;;;;17.12;78.62;99024.97;1770235;81;21053;-72
2022/06/24 02:43:55;;;;;;;3.40;2.42;;;;;;;17.12;78.60;99028.44;1770193;81;21280;-72
2022/06/24 02:46:22;;;;;;;2.50;2.30;;;;;;;17.12;78.50;99023.19;1770327;81;21461;-72
2022/06/24 02:48:48;;;;;;;5.03;2.30;;;;;;;17.13;78.44;99022.70;1770273;80;20943;-72
2022/06/24 02:51:15;;;;;;;5.03;2.58;;;;;;;17.14;78.36;99019.97;1770462;81;21387;-73
2022/06/24 02:53:43;;;;;;;3.45;2.45;;;;;;;17.16;78.46;99017.22;1770338;81;20946;-72
2022/06/24 02:56:12;;;;;;;2.87;2.65;;;;;;;17.18;78.71;99013.53;1770249;80;21165;-72
2022/06/24 02:58:38;;;;;;;2.83;2.58;;;;;;;17.19;78.82;99012.55;1770151;81;20970;-73
2022/06/24 03:01:06;;;;;;;3.22;2.47;;;;;;;17.21;78.95;99008.02;1770195;80;20935;-73
2022/06/24 03:03:33;;;;;;;3.35;2.50;;;;;;;17.22;78.74;99013.63;1770264;81;21062;-73
2022/06/24 03:06:00;;;;;;;4.20;2.83;;;;;;;17.22;78.64;99012.31;1770489;80;21482;-73
2022/06/24 03:08:28;;;;;;;3.72;2.67;;;;;;;17.23;78.54;99008.73;1770286;81;21148;-72
2022/06/24 03:10:55;;;;;;;2.30;2.10;;;;;;;17.23;78.79;99017.09;1770152;81;20971;-73
2022/06/24 03:13:21;;;;;;;2.75;2.55;;;;;;;17.24;78.80;99008.27;1770471;81;21017;-73
2022/06/24 03:15:48;;;;;;;3.45;2.55;;;;;;;17.23;78.65;99006.59;1770153;81;21022;-73
2022/06/24 03:18:16;;;;;;;3.17;2.87;;;;;;;17.25;78.84;98999.91;1770289;81;20935;-73
2022/06/24 03:20:43;;;;;;;2.87;2.17;;;;;;;17.29;78.30;99003.98;1770327;81;21153;-73
2022/06/24 03:23:10;;;;;;;2.80;2.60;;;;;;;17.33;77.98;99014.15;1770167;81;20975;-73
2022/06/24 03:25:37;;;;;;;4.42;2.65;;;;;;;17.36;77.69;99006.51;1770204;80;21375;-73
2022/06/24 03:28:04;;;;;;;3.30;2.45;;;;;;;17.41;77.79;98999.92;1770185;80;20943;-73
2022/06/24 03:30:32;;;;;;;2.80;2.50;;;;;;;17.47;77.54;99012.60;1770176;81;21486;-73
2022/06/24 03:33:00;;;;;;;3.37;2.60;;;;;;;17.51;77.02;99012.73;1770259;80;21768;-73
2022/06/24 03:35:27;;;;;;;3.10;2.50;;;;;;;17.52;77.12;99008.31;1770058;80;21387;-73
2022/06/24 03:37:54;;;;;;;4.67;2.58;;;;;;;17.52;76.96;99014.41;1770185;81;20966;-73
2022/06/24 03:40:21;;;;;;;5.30;2.70;;;;;;;17.52;77.16;99010.94;1770467;81;20995;-75
2022/06/24 03:42:47;;;;;;;3.17;2.30;;;;;;;17.53;77.22;99012.14;1770167;80;20987;-73
2022/06/24 03:45:14;;;;;;;3.62;2.50;;;;;;;17.54;77.20;99015.61;1770123;80;21959;-74
2022/06/24 03:47:41;;;;;;;3.00;2.70;;;;;;;17.55;76.90;99010.71;1770492;81;20983;-73
2022/06/24 03:50:08;;;;;;;4.78;2.22;;;;;;;17.54;77.02;99017.77;1770611;80;21065;-74
2022/06/24 03:52:35;;;;;;;2.30;2.10;;;;;;;17.57;76.67;99014.06;1770371;81;21465;-69
2022/06/24 03:55:02;;;;;;;4.20;2.52;;;;;;;17.58;76.51;99010.95;1770310;81;20955;-68
2022/06/24 03:57:29;;;;;;;7.28;2.60;;;;;;;17.58;76.59;99007.02;1770408;81;21251;-73
2022/06/24 03:59:56;;;;;;;2.30;2.08;;;;;;;17.58;76.81;99006.53;1770345;80;21399;-74
2022/06/24 04:02:23;;;;;;;3.55;2.55;;;;;;;17.62;76.29;99017.63;1770579;81;20931;-74
2022/06/24 04:04:50;;;;;;;2.95;2.20;;;;;;;17.66;76.26;99011.21;1770665;81;21035;-73
2022/06/24 04:07:18;;;;;;;2.25;2.05;;;;;;;17.68;75.99;99004.05;1770493;80;21545;-75
2022/06/24 04:09:44;;;;;;;3.75;2.35;;;;;;;17.73;75.76;99012.42;1770655;81;21172;-74
2022/06/24 04:12:11;;;;;;;5.65;2.20;;;;;;;17.76;75.69;99009.55;1770313;80;21495;-72
2022/06/24 04:17:18;;;;;;;3.37;2.45;;;;;;;17.82;74.45;99024.84;1728580;80;21051;-70
2022/06/24 04:19:46;;;;;;;2.25;2.15;;;;;;;17.86;74.48;99017.91;1770400;81;20975;-71
2022/06/24 04:22:13;;;;;;;3.37;2.60;;;;;;;17.92;74.35;99019.70;1770490;81;21210;-71
2022/06/24 04:24:39;;;;;;;3.95;2.30;;;;;;;18.00;74.34;99023.39;1770426;81;21006;-70
2022/06/24 04:27:07;;;;;;;4.47;2.30;;;;;;;18.12;73.85;99019.80;1770299;80;21409;-71
2022/06/24 04:29:34;;;;;;;3.25;2.17;;;;;;;18.28;72.94;99023.84;1751113;81;20979;-70
2022/06/24 04:32:01;;;;;;;3.17;2.15;;;;;;;18.43;72.45;99026.07;1770309;81;20978;-69
2022/06/24 04:34:27;;;;;;;4.55;2.17;;;;;;;18.58;71.89;99026.14;1770293;80;21415;-71
2022/06/24 04:36:54;;;;;;;4.35;1.98;;;;;;;18.83;71.09;99023.69;1770284;81;20946;-68
2022/06/24 04:39:20;;;;;;;7.80;2.60;;;;;;;19.13;70.36;99030.03;1770280;81;21541;-69
2022/06/24 04:41:47;;;;;;;2.00;1.80;;;;;;;19.40;68.93;99019.78;1770368;80;21498;-69
2022/06/24 04:44:14;;;;;;;2.50;1.90;;;;;;;19.72;68.09;99022.35;1770360;80;20971;-70
2022/06/24 04:46:40;;;;;;;5.25;2.12;;;;;;;20.06;67.22;99018.93;1770305;81;21052;-70
2022/06/24 04:49:07;;;;;;;9.35;2.60;;;;;;;20.33;66.06;99016.99;1770531;81;21442;-70
2022/06/24 04:51:34;;;;;;;5.15;2.33;;;;;;;20.45;65.07;99018.56;1770258;81;20987;-70
2022/06/24 04:54:00;;;;;;;4.55;2.25;;;;;;;20.49;65.30;99020.45;1770465;80;21471;-70
2022/06/24 04:56:27;;;;;;;3.50;2.42;;;;;;;20.49;65.03;99022.61;1770364;81;20971;-69
2022/06/24 04:58:54;;;;;;;6.17;2.17;;;;;;;20.39;64.54;99029.66;1770329;81;21042;-69
2022/06/24 05:01:20;;;;;;;2.15;1.95;;;;;;;20.28;65.23;99026.64;1770456;81;21482;-69
2022/06/24 05:03:47;;;;;;;4.00;2.25;;;;;;;20.19;65.72;99025.28;1770515;81;20916;-70
2022/06/24 05:06:13;;;;;;;4.10;2.55;;;;;;;20.13;65.90;99026.67;1757713;80;21487;-71
2022/06/24 05:08:40;;;;;;;3.08;2.08;;;;;;;20.06;66.01;99018.93;1750978;81;21027;-70
2022/06/24 05:11:06;;;;;;;3.10;2.27;;;;;;;19.97;66.45;99028.98;1739796;81;21099;-69
2022/06/24 05:13:34;;;;;;;3.08;1.87;;;;;;;19.88;66.66;99017.90;1739662;82;20998;-69
2022/06/24 05:16:00;;;;;;;5.83;2.20;;;;;;;19.81;66.40;99032.09;1739686;81;20995;-69
2022/06/24 05:18:27;;;;;;;5.08;2.37;;;;;;;19.81;66.72;99020.70;1753397;81;20967;-70
2022/06/24 05:20:53;;;;;;;5.60;2.42;;;;;;;19.81;66.59;99032.09;1739752;82;21420;-70
2022/06/24 05:23:20;;;;;;;5.83;2.47;;;;;;;19.79;66.59;99022.16;1740028;81;21087;-70
2022/06/24 05:25:47;;;;;;;3.67;2.10;;;;;;;19.78;66.61;99023.64;1739584;81;21416;-70
2022/06/24 05:28:13;;;;;;;6.10;2.65;;;;;;;19.75;65.04;99031.81;1739566;82;20959;-70
2022/06/24 05:30:40;;;;;;;7.40;2.80;;;;;;;19.72;64.84;99038.67;1737450;81;21003;-71
2022/06/24 05:33:07;;;;;;;7.67;2.33;;;;;;;19.69;64.86;99038.92;1737163;82;21026;-70
2022/06/24 05:35:34;;;;;;;3.92;2.47;;;;;;;19.68;65.19;99042.53;1753904;81;21774;-72
2022/06/24 05:38:00;;;;;;;2.30;2.05;;;;;;;19.65;65.11;99042.78;1767063;81;21073;-70
2022/06/24 05:40:27;;;;;;;5.37;2.40;;;;;;;19.63;64.95;99047.36;1766643;80;21018;-71
2022/06/24 05:42:54;;;;;;;5.75;2.58;;;;;;;19.59;65.09;99032.27;1767091;81;21533;-71
2022/06/24 05:45:21;;;;;;;7.12;2.58;;;;;;;19.60;65.16;99038.73;1767268;80;21030;-71
2022/06/24 05:47:48;;;;;;;4.97;2.37;;;;;;;19.60;64.70;99042.69;1767551;81;21187;-69
2022/06/24 05:50:15;;;;;;;5.05;2.40;;;;;;;19.59;64.58;99040.18;1767184;81;21007;-69
2022/06/24 05:55:26;;;;;;;7.47;2.42;;;;;;;19.60;64.52;99041.85;1766149;81;21494;-69
2022/06/24 05:57:55;;;;;;;4.30;2.02;;;;;;;19.62;64.02;99039.92;1766955;80;22245;-69
2022/06/24 06:00:21;;;;;;;6.92;2.17;;;;;;;19.64;64.12;99041.95;1767181;80;21611;-71
2022/06/24 06:02:48;;;;;;;5.60;2.50;;;;;;;19.67;63.31;99045.65;1766644;81;20903;-70
2022/06/24 06:05:15;;;;;;;5.85;2.33;;;;;;;19.68;63.36;99049.13;1766218;80;21077;-71
2022/06/24 06:07:42;;;;;;;4.55;2.00;;;;;;;19.67;63.11;99048.77;1763476;80;21018;-72
2022/06/24 06:10:10;;;;;;;7.78;2.62;;;;;;;19.66;62.70;99057.66;1745044;80;21085;-69
2022/06/24 06:12:37;;;;;;;6.75;2.37;;;;;;;19.64;62.31;99059.09;1725708;83;21266;-70
2022/06/24 06:15:06;;;;;;;2.42;1.82;;;;;;;19.61;61.54;99058.03;1760935;81;21491;-71
2022/06/24 06:17:34;;;;;;;4.72;2.30;;;;;;;19.59;62.16;99058.64;1767246;81;21066;-72
2022/06/24 06:20:01;;;;;;;3.95;2.15;;;;;;;19.58;62.11;99059.64;1767218;80;21029;-71
2022/06/24 06:22:28;;;;;;;5.45;2.10;;;;;;;19.61;61.71;99063.31;1766637;80;21045;-69
2022/06/24 06:24:55;;;;;;;7.33;2.92;;;;;;;19.61;61.44;99069.91;1753670;81;21143;-71
2022/06/24 06:27:22;;;;;;;4.30;2.25;;;;;;;19.63;61.77;99067.14;1765419;81;21115;-72
2022/06/24 06:29:49;;;;;;;5.35;2.00;;;;;;;19.63;61.60;99065.82;1759311;81;21061;-71
2022/06/24 06:32:16;;;;;;;6.58;2.58;;;;;;;19.61;60.92;99078.66;1766838;81;21038;-71
2022/06/24 06:34:43;;;;;;;7.00;2.50;;;;;;;19.63;61.29;99068.46;1766383;80;21026;-71
2022/06/24 06:37:11;;;;;;;4.45;2.25;;;;;;;19.64;61.25;99063.05;1767512;81;21696;-69
2022/06/24 06:39:38;;;;;;;3.85;2.00;;;;;;;19.68;61.27;99072.88;1757614;81;21124;-70
2022/06/24 06:42:06;;;;;;;3.92;2.10;;;;;;;19.73;60.21;99074.16;1740686;81;21078;-70
2022/06/24 06:44:39;;;;;;;2.65;1.80;;;;;;;19.78;60.46;99073.77;1741733;81;21034;-71
2022/06/24 06:47:06;;;;;;;3.30;1.95;;;;;;;19.86;60.45;99076.09;1768560;81;21069;-69
2022/06/24 06:49:33;;;;;;;6.87;3.05;;;;;;;19.98;59.97;99074.70;1751548;81;21132;-72
2022/06/24 06:52:00;;;;;;;4.80;2.17;;;;;;;20.06;59.23;99070.41;1735710;81;21018;-72
2022/06/24 06:54:29;;;;;;;3.83;1.90;;;;;;;20.12;58.35;99073.01;1736262;82;22007;-70
2022/06/24 06:56:57;;;;;;;2.72;1.70;;;;;;;20.18;58.84;99079.09;1736464;82;21026;-73
2022/06/24 06:59:24;;;;;;;4.17;2.47;;;;;;;20.23;58.22;99082.14;1735999;82;21046;-71
2022/06/24 07:01:50;;;;;;;5.28;2.33;;;;;;;20.22;58.47;99080.47;1739809;81;21230;-71
2022/06/24 07:04:17;;;;;;;4.42;1.92;;;;;;;20.18;58.65;99083.86;1762750;80;21019;-70
2022/06/24 07:06:44;;;;;;;7.87;2.72;;;;;;;20.15;58.14;99081.99;1739255;81;21082;-69
2022/06/24 07:09:11;;;;;;;5.42;2.35;;;;;;;20.17;58.75;99091.94;1766231;81;21045;-71
2022/06/24 07:11:38;;;;;;;5.20;2.35;;;;;;;20.19;57.85;99091.29;1767212;81;21561;-72
2022/06/24 07:14:04;;;;;;;4.28;2.10;;;;;;;20.22;58.37;99087.91;1765814;81;21140;-69
2022/06/24 07:16:32;;;;;;;2.83;1.90;;;;;;;20.29;58.27;99086.89;1766465;81;21085;-72
2022/06/24 07:18:59;;;;;;;4.60;2.02;;;;;;;20.36;57.91;99085.88;1765965;81;21037;-71
2022/06/24 07:21:25;;;;;;;4.08;2.15;;;;;;;20.40;57.65;99085.48;1766764;81;20967;-69
2022/06/24 07:23:53;;;;;;;2.77;2.10;;;;;;;20.45;57.76;99091.69;1767822;81;21014;-71
2022/06/24 07:26:20;;;;;;;3.52;1.70;;;;;;;20.49;57.46;99091.30;1767785;81;21431;-70
2022/06/24 07:28:48;;;;;;;5.70;1.82;;;;;;;20.53;56.91;99086.58;1772738;80;21069;-71
2022/06/24 07:31:18;;;;;;;6.60;2.30;;;;;;;20.58;57.10;99094.95;1766939;80;21042;-72
2022/06/24 07:33:45;;;;;;;5.17;2.67;;;;;;;20.63;57.15;99090.90;1767127;80;21030;-72
2022/06/24 07:36:11;;;;;;;3.50;1.80;;;;;;;20.68;57.52;99083.89;1766949;81;21045;-70
2022/06/24 07:38:38;;;;;;;3.80;1.87;;;;;;;20.76;56.63;99085.86;1755964;81;21173;-69
2022/06/24 07:41:04;;;;;;;5.97;2.35;;;;;;;20.83;56.97;99083.00;1742805;82;21030;-71
2022/06/24 07:43:31;;;;;;;5.12;2.10;;;;;;;20.93;56.95;99085.17;1750026;81;21082;-69
2022/06/24 07:45:58;;;;;;;3.25;1.80;;;;;;;21.06;56.85;99082.25;1747135;81;21042;-70
2022/06/24 07:48:25;;;;;;;4.58;1.77;;;;;;;21.16;55.65;99080.45;1751738;82;21034;-70
2022/06/24 07:50:51;;;;;;;3.35;2.40;;;;;;;21.22;55.34;99083.38;1751399;82;21111;-68
2022/06/24 07:53:18;;;;;;;2.35;1.98;;;;;;;21.30;55.25;99085.34;1756211;81;21609;-70
2022/06/24 07:58:29;;;;;;;3.35;2.00;;;;;;;21.41;54.44;99090.95;1769983;80;21498;-70
2022/06/24 08:00:56;;;;;;;3.25;2.00;;;;;;;21.41;54.57;99086.98;1769394;80;21034;-70
2022/06/24 08:03:22;;;;;;;4.55;2.65;;;;;;;21.44;54.62;99081.41;1768475;81;21479;-71
2022/06/24 08:05:49;;;;;;;7.45;2.50;;;;;;;21.50;54.67;99079.05;1768634;81;21073;-71
2022/06/24 08:08:16;;;;;;;5.00;2.12;;;;;;;21.59;54.41;99079.98;1769475;81;20983;-70
2022/06/24 08:10:43;;;;;;;4.45;2.22;;;;;;;21.61;53.16;99084.16;1769918;81;20943;-71
2022/06/24 08:13:09;;;;;;;5.08;2.40;;;;;;;21.54;52.62;99080.44;1769665;81;21490;-71
2022/06/24 08:15:37;;;;;;;9.35;2.58;;;;;;;21.43;53.67;99079.25;1769414;81;21128;-70
2022/06/24 08:18:04;;;;;;;4.65;2.15;;;;;;;21.40;53.74;99081.34;1769479;81;21056;-71
2022/06/24 08:20:31;;;;;;;7.92;2.50;;;;;;;21.38;54.07;99085.48;1750681;81;21014;-69
2022/06/24 08:22:58;;;;;;;2.95;2.20;;;;;;;21.40;54.04;99083.98;1770152;81;21517;-71
2022/06/24 08:25:25;;;;;;;2.60;2.37;;;;;;;21.44;53.88;99080.09;1770268;80;20955;-70
2022/06/24 08:27:52;;;;;;;4.22;1.98;;;;;;;21.52;54.38;99081.06;1770358;80;21475;-71
2022/06/24 08:30:19;;;;;;;3.60;2.15;;;;;;;21.68;54.28;99076.98;1770089;81;20986;-70
2022/06/24 08:32:46;;;;;;;3.92;2.35;;;;;;;21.91;53.42;99073.02;1770029;80;20951;-72
2022/06/24 08:35:12;;;;;;;8.55;2.60;;;;;;;22.14;53.08;99070.87;1752175;81;21533;-71
2022/06/24 08:37:40;;;;;;;3.25;2.30;;;;;;;22.38;52.68;99072.98;1738697;82;21105;-71
2022/06/24 08:40:11;;;;;;;3.55;2.55;;;;;;;22.62;51.81;99063.46;1739231;81;21420;-71
2022/06/24 08:42:39;;;;;;;3.62;2.35;;;;;;;22.85;52.19;99063.06;1739015;82;20911;-71
2022/06/24 08:45:07;;;;;;;5.22;2.58;;;;;;;23.03;51.29;99074.01;1739204;81;21440;-73
2022/06/24 08:47:34;;;;;;;6.55;2.40;;;;;;;23.10;50.76;99072.08;1738276;82;21061;-72
2022/06/24 08:50:03;;;;;;;6.83;2.60;;;;;;;23.06;50.79;99068.06;1737901;82;21070;-72
2022/06/24 08:52:29;;;;;;;7.78;2.35;;;;;;;23.01;50.85;99065.36;1738703;81;21409;-71
2022/06/24 08:54:56;;;;;;;2.92;2.25;;;;;;;22.93;50.08;99066.63;1737429;82;21089;-72
2022/06/24 08:57:23;;;;;;;2.65;2.40;;;;;;;22.80;50.44;99072.78;1738240;81;21530;-74
2022/06/24 08:59:50;;;;;;;4.87;2.60;;;;;;;22.73;51.31;99064.25;1754476;81;21038;-76
2022/06/24 09:02:18;;;;;;;4.80;2.37;;;;;;;22.70;51.68;99073.33;1746683;81;20950;-73
2022/06/24 09:04:45;;;;;;;4.83;2.70;;;;;;;22.69;51.05;99072.98;1768638;81;21241;-73
2022/06/24 09:07:24;;;;;;;4.03;2.52;;;;;;;22.69;51.31;99072.98;1768118;81;21070;-77
2022/06/24 09:10:01;;;;;;;5.75;2.62;;;;;;;22.72;51.42;99074.02;1749930;81;21007;-76
2022/06/24 09:12:29;;;;;;;4.80;2.70;;;;;;;22.76;50.88;99072.73;1769373;81;20963;-79
2022/06/24 09:14:58;;;;;;;7.75;2.58;;;;;;;22.80;51.12;99074.11;1768630;81;21034;-77
2022/06/24 09:17:29;;;;;;;4.35;2.58;;;;;;;22.89;51.72;99066.59;1748400;80;21252;-77
2022/06/24 09:20:10;;;;;;;4.90;2.42;;;;;;;23.01;50.72;99088.41;1768831;81;21030;-77
2022/06/24 09:22:37;;;;;;;5.45;2.65;;;;;;;23.09;50.51;99073.06;1766933;80;20971;-80
2022/06/24 09:25:04;;;;;;;3.65;2.95;;;;;;;23.17;50.96;99064.70;1770143;80;21108;-79
2022/06/24 09:27:31;;;;;;;5.40;2.90;;;;;;;23.28;49.78;99067.59;1767684;80;21080;-79
2022/06/24 09:29:58;;;;;;;5.45;2.55;;;;;;;23.30;49.58;99063.80;1751409;81;21734;-77
2022/06/24 09:32:25;;;;;;;3.35;2.52;;;;;;;23.32;49.57;99070.28;1728551;83;20947;-81
2022/06/24 09:35:08;;;;;;;8.65;3.02;;;;;;;23.38;49.84;99061.71;1755584;81;21085;-76
2022/06/24 09:37:43;;;;;;;4.97;2.50;;;;;;;23.45;48.75;99055.27;1769148;80;21070;-82
2022/06/24 09:40:28;;;;;;;5.72;2.77;;;;;;;23.51;49.33;99051.51;1769756;81;20990;-78
2022/06/24 09:43:04;;;;;;;5.00;2.60;;;;;;;23.60;48.57;99047.94;1770192;80;21479;-76
2022/06/24 09:45:46;;;;;;;5.25;2.95;;;;;;;23.69;48.43;99047.50;1767249;81;38593;-82
2022/06/24 09:48:32;;;;;;;16.20;3.37;;;;;;;23.85;47.44;99040.95;1728582;83;20999;-77
2022/06/24 09:51:02;;;;;;;5.30;2.75;;;;;;;24.00;46.24;99045.16;1728537;83;21549;-75
2022/06/24 09:53:37;;;;;;;5.03;3.00;;;;;;;24.16;46.46;99048.41;1728376;82;21537;-75
2022/06/24 09:56:07;;;;;;;5.28;3.45;;;;;;;24.37;45.14;99039.55;1728550;83;21140;-74
2022/06/24 09:58:36;;;;;;;3.47;2.77;;;;;;;24.44;44.38;99033.06;1728783;83;20940;-78
2022/06/24 10:01:04;;;;;;;11.38;3.67;;;;;;;24.40;44.62;99024.58;1728595;83;21120;-80
2022/06/24 10:03:34;;;;;;;8.53;3.37;;;;;;;24.42;44.73;99021.76;1728686;83;20995;-73
2022/06/24 10:06:10;;;;;;;8.05;2.90;;;;;;;24.51;45.13;99012.82;1728601;83;21001;-73
2022/06/24 10:08:39;;;;;;;10.78;2.70;;;;;;;24.59;44.22;99032.27;1728609;83;21072;-75
2022/06/24 10:11:09;;;;;;;7.00;3.10;;;;;;;24.55;44.70;99052.22;1728387;83;20972;-74
2022/06/24 10:13:37;;;;;;;4.53;3.15;;;;;;;24.56;44.84;99031.78;1728824;83;20971;-80
2022/06/24 10:16:06;;;;;;;6.83;2.67;;;;;;;24.59;44.89;99035.42;1728625;83;20963;-79
2022/06/24 10:18:39;;;;;;;4.00;2.52;;;;;;;24.63;44.96;99046.91;1728911;83;20999;-75
2022/06/24 10:21:09;;;;;;;8.30;3.10;;;;;;;24.72;44.66;99025.99;1763559;81;21081;-73
2022/06/24 10:23:51;;;;;;;3.98;2.87;;;;;;;24.95;45.13;99037.35;1770361;80;20981;-73
2022/06/24 10:26:31;;;;;;;4.95;3.10;;;;;;;25.13;43.87;99052.66;1750602;81;20931;-74
2022/06/24 10:29:09;;;;;;;4.58;2.83;;;;;;;25.14;43.70;99029.04;1756805;80;20963;-74
2022/06/24 10:31:53;;;;;;;6.40;3.52;;;;;;;25.17;44.00;99027.38;1762757;81;21490;-79
2022/06/24 10:34:30;;;;;;;5.25;3.05;;;;;;;25.17;44.44;99015.91;1768041;81;21046;-75
2022/06/24 10:37:02;;;;;;;7.12;3.58;;;;;;;25.15;45.17;99028.05;1757828;80;20968;-77
2022/06/24 10:39:31;;;;;;;6.03;2.90;;;;;;;24.99;44.10;99032.01;1769604;81;21065;-76
2022/06/24 10:42:06;;;;;;;3.30;2.87;;;;;;;24.73;44.97;99028.98;1770126;81;21014;-77
2022/06/24 10:44:37;;;;;;;4.67;2.92;;;;;;;24.53;45.12;99034.27;1734295;82;21071;-76
2022/06/24 10:47:16;;;;;;;3.95;2.72;;;;;;;24.39;45.19;99034.38;1737339;82;21768;-79
2022/06/24 10:50:01;;;;;;;7.33;3.08;;;;;;;24.35;45.62;99031.73;1761777;81;21064;-78
2022/06/24 10:52:51;;;;;;;6.62;3.27;;;;;;;24.38;45.96;99030.55;1737617;82;21026;-77
2022/06/24 10:55:28;;;;;;;4.15;2.58;;;;;;;24.52;45.36;99027.78;1737909;82;21026;-79
2022/06/24 10:58:06;;;;;;;4.33;2.90;;;;;;;24.65;45.79;99021.48;1737931;81;21069;-75
2022/06/24 11:00:50;;;;;;;4.35;2.87;;;;;;;24.73;45.04;99022.34;1737548;82;21759;-76
2022/06/24 11:03:30;;;;;;;5.30;2.95;;;;;;;24.71;44.87;99014.19;1737451;81;21040;-75
2022/06/24 11:05:58;;;;;;;18.40;3.58;;;;;;;24.67;44.62;99038.11;1757140;81;21975;-73
2022/06/24 11:08:25;;;;;;;5.40;2.98;;;;;;;24.59;44.93;99021.62;1736869;81;21602;-75
2022/06/24 11:10:52;;;;;;;6.15;3.05;;;;;;;24.52;44.73;99011.83;1745978;81;21006;-74
2022/06/24 11:13:24;;;;;;;8.35;5.15;;;;;;;24.48;44.89;99023.28;1766555;81;21731;-79
2022/06/24 11:15:58;;;;;;;8.18;2.87;;;;;;;24.50;44.75;99018.63;1743524;81;21042;-74
2022/06/24 11:18:32;;;;;;;4.05;2.80;;;;;;;24.52;44.52;99029.11;1759313;81;21594;-74
2022/06/24 11:21:09;;;;;;;8.90;2.62;;;;;;;24.57;44.49;99028.13;1766594;80;21026;-77
2022/06/24 11:23:38;;;;;;;3.47;2.95;;;;;;;24.59;44.16;99021.62;1733426;82;21034;-76
2022/06/24 11:26:08;;;;;;;6.92;3.08;;;;;;;24.62;43.79;99031.11;1750126;82;21717;-74
2022/06/24 11:28:39;;;;;;;5.35;2.72;;;;;;;24.64;44.15;99024.64;1758183;81;21093;-74
2022/06/24 11:31:26;;;;;;;2.62;2.42;;;;;;;24.71;43.28;99020.83;1769949;81;21030;-75
2022/06/24 11:34:05;;;;;;;2.85;2.58;;;;;;;24.77;44.06;99038.80;1750047;81;21091;-76
2022/06/24 11:36:33;;;;;;;7.67;3.08;;;;;;;24.94;43.48;99019.70;1736759;82;21055;-75
2022/06/24 11:39:02;;;;;;;6.37;2.70;;;;;;;25.06;43.13;99043.16;1736519;82;21224;-78
2022/06/24 11:41:42;;;;;;;3.58;2.80;;;;;;;25.09;42.51;99023.88;1736519;82;21032;-76
2022/06/24 11:44:09;;;;;;;5.83;3.02;;;;;;;25.10;42.44;99016.23;1736973;82;21034;-76
2022/06/24 11:46:36;;;;;;;3.12;2.90;;;;;;;25.16;42.27;99028.88;1736794;82;21015;-78
2022/06/24 11:49:12;;;;;;;4.90;2.60;;;;;;;25.23;42.72;99011.22;1737086;82;21039;-76
2022/06/24 11:51:40;;;;;;;9.63;3.47;;;;;;;25.29;43.00;99027.36;1737278;82;21958;-77
2022/06/24 11:54:08;;;;;;;13.05;3.35;;;;;;;25.38;42.78;99026.83;1736906;82;21055;-77